Time;durP1;ratioP1;P1;durP2;ratioP2;P2;SDS_P1;SDS_P2;PMS_P1;PMS_P2;Temp;Humidity;BMP_temperature;BMP_pressure;BME280_temperature;BME280_humidity;BME280_pressure;Samples;Min_cycle;Max_cycle;Signal;HPM_P1;HPM_P2
2021/10/06 00:00:24;;;;;;;;;;;;;;;14.05;70.13;97998.81;1785069;80;21034;-82
2021/10/06 00:02:52;;;;;;;;;;;;;;;14.02;68.20;97991.25;1784162;79;20120;-83
2021/10/06 00:05:17;;;;;;;;;;;;;;;13.93;71.33;97990.88;1784543;80;20238;-82
2021/10/06 00:07:43;;;;;;;;;;;;;;;13.91;67.12;97984.92;1784457;79;20218;-83
2021/10/06 00:10:09;;;;;;;;;;;;;;;13.76;72.25;97964.26;1784760;80;20135;-83
2021/10/06 00:12:35;;;;;;;;;;;;;;;13.78;68.53;97969.65;1784612;79;21050;-83
2021/10/06 00:15:01;;;;;;;;;;;;;;;13.85;68.39;97977.98;1784580;80;20190;-83
2021/10/06 00:17:27;;;;;;;;;;;;;;;13.87;67.93;97980.65;1754540;80;20154;-81
2021/10/06 00:19:53;;;;;;;;;;;;;;;13.83;68.86;97988.59;1784356;80;20180;-82
2021/10/06 00:22:21;;;;;;;;;;;;;;;13.79;70.60;98001.22;1784614;79;20183;-81
2021/10/06 00:24:47;;;;;;;;;;;;;;;13.71;72.88;97992.38;1784578;80;21069;-84
2021/10/06 00:27:13;;;;;;;;;;;;;;;13.67;72.37;97994.63;1784765;79;20149;-83
2021/10/06 00:29:39;;;;;;;;;;;;;;;13.64;70.41;98002.84;1783491;80;20168;-82
2021/10/06 00:32:05;;;;;;;;;;;;;;;13.56;74.12;97996.73;1778787;79;20147;-82
2021/10/06 00:34:31;;;;;;;;;;;;;;;13.57;69.37;97991.53;1779417;80;20203;-82
2021/10/06 00:36:57;;;;;;;;;;;;;;;13.60;71.21;97996.41;1778999;79;21006;-82
2021/10/06 00:39:22;;;;;;;;;;;;;;;13.53;71.10;97994.06;1778828;80;20210;-82
2021/10/06 00:41:48;;;;;;;;;;;;;;;13.57;71.10;97992.09;1778819;79;20778;-83
2021/10/06 00:44:18;;;;;;;;;;;;;;;13.60;71.33;97992.31;1778930;80;20484;-83
2021/10/06 00:46:44;;;;;;;;;;;;;;;13.79;70.63;97984.07;1779037;80;20141;-83
2021/10/06 00:49:11;;;;;;;;;;;;;;;14.15;68.32;97988.82;1778775;80;21173;-82
2021/10/06 00:51:38;;;;;;;;;;;;;;;14.38;67.76;97995.42;1778459;80;20129;-82
2021/10/06 00:54:04;;;;;;;;;;;;;;;14.54;67.43;97989.12;1778643;79;20405;-83
2021/10/06 00:56:30;;;;;;;;;;;;;;;14.74;66.20;97985.12;1778679;80;20604;-82
2021/10/06 00:58:56;;;;;;;;;;;;;;;14.98;65.11;97982.68;1778619;79;20286;-84
2021/10/06 01:01:21;;;;;;;;;;;;;;;15.18;63.43;97979.45;1778766;80;21820;-82
2021/10/06 01:03:47;;;;;;;;;;;;;;;15.33;63.81;97983.73;1778679;79;20230;-82
2021/10/06 01:06:13;;;;;;;;;;;;;;;15.47;62.95;97986.64;1778745;80;20235;-83
2021/10/06 01:08:39;;;;;;;;;;;;;;;15.57;62.25;97982.84;1779071;80;20144;-82
2021/10/06 01:11:04;;;;;;;;;;;;;;;15.62;60.45;97979.99;1779305;80;20143;-82
2021/10/06 01:13:30;;;;;;;;;;;;;;;15.66;60.52;97987.83;1778894;80;21084;-83
2021/10/06 01:15:56;;;;;;;;;;;;;;;15.86;58.46;97993.86;1778836;80;20289;-83
2021/10/06 01:18:22;;;;;;;;;;;;;;;15.93;57.81;97990.92;1778843;80;20262;-82
2021/10/06 01:20:47;;;;;;;;;;;;;;;16.05;59.13;97993.85;1779313;80;20191;-82
2021/10/06 01:23:14;;;;;;;;;;;;;;;16.15;58.23;97996.05;1778960;79;20151;-82
2021/10/06 01:25:40;;;;;;;;;;;;;;;16.26;57.51;97991.92;1722738;80;21730;-82
2021/10/06 01:28:06;;;;;;;;;;;;;;;16.38;57.79;97994.04;1747027;80;20202;-82
2021/10/06 01:30:32;;;;;;;;;;;;;;;16.44;57.01;97999.05;1781315;80;20273;-82
2021/10/06 01:32:57;;;;;;;;;;;;;;;16.49;57.18;97998.08;1784725;79;20266;-81
2021/10/06 01:35:23;;;;;;;;;;;;;;;16.54;56.45;98002.05;1784686;80;20198;-84
2021/10/06 01:37:49;;;;;;;;;;;;;;;16.61;55.55;97999.08;1784673;79;21078;-84
2021/10/06 01:40:17;;;;;;;;;;;;;;;16.62;56.04;97995.22;1784688;80;20699;-82
2021/10/06 01:42:43;;;;;;;;;;;;;;;16.56;56.01;97988.28;1784584;79;20196;-83
2021/10/06 01:45:23;;;;;;;;;;;;;;;16.56;56.00;97984.74;1756207;80;20159;-84
2021/10/06 01:47:49;;;;;;;;;;;;;;;16.55;55.26;97988.05;1784585;79;20080;-82
2021/10/06 01:50:23;;;;;;;;;;;;;;;16.61;55.18;97978.56;1784860;80;21169;-83
2021/10/06 01:52:49;;;;;;;;;;;;;;;16.67;55.36;97981.97;1784573;79;20144;-82
2021/10/06 01:55:15;;;;;;;;;;;;;;;16.62;55.61;97981.55;1756287;80;20164;-82
2021/10/06 01:57:41;;;;;;;;;;;;;;;16.53;56.19;97975.82;1784748;79;20373;-84
2021/10/06 02:00:07;;;;;;;;;;;;;;;16.41;56.75;97968.25;1784624;80;20139;-82
2021/10/06 02:02:33;;;;;;;;;;;;;;;16.27;56.90;97966.20;1784765;79;21098;-83
2021/10/06 02:04:59;;;;;;;;;;;;;;;16.02;58.23;97953.50;1784661;80;20174;-84
2021/10/06 02:07:25;;;;;;;;;;;;;;;15.96;57.71;97950.66;1784805;79;20691;-84
2021/10/06 02:09:50;;;;;;;;;;;;;;;15.89;58.04;97946.77;1754704;80;20653;-82
2021/10/06 02:12:16;;;;;;;;;;;;;;;15.87;58.14;97955.84;1784733;79;20163;-82
2021/10/06 02:14:42;;;;;;;;;;;;;;;15.79;58.54;97958.78;1784691;80;21093;-82
2021/10/06 02:17:08;;;;;;;;;;;;;;;15.72;58.52;97962.52;1784715;80;20198;-82
2021/10/06 02:19:33;;;;;;;;;;;;;;;15.62;59.38;97956.78;1784429;79;20179;-82
2021/10/06 02:21:59;;;;;;;;;;;;;;;15.57;58.87;97958.27;1784844;80;20214;-83
2021/10/06 02:24:25;;;;;;;;;;;;;;;15.55;59.03;97948.75;1756134;80;20159;-83
2021/10/06 02:26:51;;;;;;;;;;;;;;;15.49;59.08;97951.64;1785301;80;21111;-83
2021/10/06 02:29:17;;;;;;;;;;;;;;;15.44;59.27;97955.05;1754677;80;20237;-84
2021/10/06 02:31:42;;;;;;;;;;;;;;;15.39;60.36;97941.55;1784478;80;20214;-84
2021/10/06 02:34:09;;;;;;;;;;;;;;;15.31;59.86;97944.47;1784857;79;20373;-81
2021/10/06 02:36:34;;;;;;;;;;;;;;;15.28;60.12;97935.52;1784410;80;20133;-82
2021/10/06 02:39:00;;;;;;;;;;;;;;;15.27;59.85;97927.65;1784898;79;21402;-81
2021/10/06 02:41:26;;;;;;;;;;;;;;;15.24;59.78;97916.80;1754573;80;20195;-82
2021/10/06 02:43:51;;;;;;;;;;;;;;;15.21;60.21;97911.95;1784557;79;20178;-82
2021/10/06 02:46:17;;;;;;;;;;;;;;;15.19;60.51;97917.73;1784673;80;20151;-82
2021/10/06 02:48:43;;;;;;;;;;;;;;;15.14;60.61;97921.16;1784642;79;20227;-82
2021/10/06 02:51:09;;;;;;;;;;;;;;;15.15;60.60;97934.49;1784486;80;21781;-82
2021/10/06 02:53:35;;;;;;;;;;;;;;;15.16;60.58;97938.02;1784499;79;20136;-84
2021/10/06 02:56:00;;;;;;;;;;;;;;;15.14;60.57;97947.89;1784458;80;20246;-82
2021/10/06 02:58:26;;;;;;;;;;;;;;;15.12;60.60;97946.57;1784533;79;20166;-82
2021/10/06 03:00:52;;;;;;;;;;;;;;;15.09;60.97;97948.01;1785026;80;20163;-82
2021/10/06 03:03:18;;;;;;;;;;;;;;;15.04;61.44;97954.97;1784805;79;21098;-83
2021/10/06 03:05:44;;;;;;;;;;;;;;;14.98;63.19;97954.03;1784626;80;20213;-84
2021/10/06 03:08:09;;;;;;;;;;;;;;;14.94;63.13;97948.38;1784590;79;20246;-83
2021/10/06 03:10:35;;;;;;;;;;;;;;;14.88;64.35;97943.61;1784718;80;20229;-83
2021/10/06 03:13:01;;;;;;;;;;;;;;;14.85;62.37;97941.48;1784698;79;20262;-81
2021/10/06 03:15:27;;;;;;;;;;;;;;;14.81;63.33;97937.78;1784452;80;21986;-82
2021/10/06 03:17:52;;;;;;;;;;;;;;;14.80;62.55;97940.26;1784529;79;20242;-84
2021/10/06 03:20:18;;;;;;;;;;;;;;;14.73;63.40;97937.15;1784587;80;20691;-82
2021/10/06 03:22:44;;;;;;;;;;;;;;;14.71;63.17;97948.93;1754593;79;20241;-83
2021/10/06 03:25:10;;;;;;;;;;;;;;;14.71;64.15;97960.40;1754591;80;20250;-84
2021/10/06 03:27:35;;;;;;;;;;;;;;;14.67;63.27;97959.63;1784655;80;21930;-84
2021/10/06 03:30:02;;;;;;;;;;;;;;;14.63;64.72;97971.48;1784408;79;20198;-81
2021/10/06 03:32:28;;;;;;;;;;;;;;;14.53;65.43;97972.52;1778966;80;20314;-81
2021/10/06 03:34:54;;;;;;;;;;;;;;;14.44;66.06;97983.02;1778691;80;20234;-81
2021/10/06 03:37:19;;;;;;;;;;;;;;;14.41;67.39;97999.44;1748413;80;20183;-83
2021/10/06 03:39:45;;;;;;;;;;;;;;;14.38;66.66;97998.70;1778698;80;21069;-81
2021/10/06 03:42:11;;;;;;;;;;;;;;;14.32;68.91;97989.01;1747195;80;20163;-83
2021/10/06 03:44:37;;;;;;;;;;;;;;;14.26;68.66;97988.85;1778743;79;20222;-83
2021/10/06 03:47:03;;;;;;;;;;;;;;;14.23;68.63;97988.91;1779014;80;20554;-82
2021/10/06 03:49:29;;;;;;;;;;;;;;;14.21;68.92;97982.97;1778707;80;20148;-81
2021/10/06 03:51:54;;;;;;;;;;;;;;;14.21;68.76;97997.95;1778847;80;21083;-83
2021/10/06 03:54:20;;;;;;;;;;;;;;;14.10;73.22;98010.18;1779156;80;20215;-81
2021/10/06 03:56:46;;;;;;;;;;;;;;;13.88;74.97;98007.33;1779376;80;20182;-83
2021/10/06 03:59:12;;;;;;;;;;;;;;;13.76;81.83;98007.83;1778776;80;20179;-81
2021/10/06 04:01:37;;;;;;;;;;;;;;;13.74;75.09;98014.11;1778514;80;20223;-82
2021/10/06 04:04:03;;;;;;;;;;;;;;;13.74;74.46;98017.63;1778656;80;21208;-81
2021/10/06 04:06:29;;;;;;;;;;;;;;;13.72;77.19;98009.52;1778614;80;20151;-81
2021/10/06 04:08:55;;;;;;;;;;;;;;;13.63;80.54;98005.88;1778676;79;20187;-81
2021/10/06 04:11:20;;;;;;;;;;;;;;;13.53;81.52;98011.75;1778715;80;20147;-81
2021/10/06 04:13:46;;;;;;;;;;;;;;;13.47;76.58;98023.83;1778867;79;20159;-83
2021/10/06 04:16:12;;;;;;;;;;;;;;;13.45;76.96;98029.33;1778638;80;21078;-81
2021/10/06 04:18:38;;;;;;;;;;;;;;;13.33;82.66;98018.91;1778666;79;20175;-81
2021/10/06 04:21:03;;;;;;;;;;;;;;;13.28;80.73;98024.43;1778766;80;20187;-83
2021/10/06 04:23:29;;;;;;;;;;;;;;;13.26;78.86;98024.73;1778733;79;20195;-83
2021/10/06 04:25:55;;;;;;;;;;;;;;;13.31;77.98;98032.55;1778971;80;20147;-83
2021/10/06 04:28:21;;;;;;;;;;;;;;;13.36;79.91;98037.91;1779108;79;21077;-82
2021/10/06 04:30:46;;;;;;;;;;;;;;;13.34;85.27;98032.78;1779386;80;20198;-82
2021/10/06 04:33:12;;;;;;;;;;;;;;;13.31;82.05;98045.59;1784721;79;20297;-82
2021/10/06 04:35:38;;;;;;;;;;;;;;;13.26;82.66;98047.86;1784617;80;20250;-82
2021/10/06 04:38:04;;;;;;;;;;;;;;;13.18;85.43;98053.14;1784952;79;20688;-81
2021/10/06 04:40:29;;;;;;;;;;;;;;;13.19;80.08;98054.22;1784654;80;21050;-83
2021/10/06 04:42:55;;;;;;;;;;;;;;;13.15;80.62;98058.59;1784434;80;20171;-83
2021/10/06 04:45:22;;;;;;;;;;;;;;;13.17;80.10;98070.02;1784556;79;20166;-81
2021/10/06 04:47:47;;;;;;;;;;;;;;;13.20;79.90;98067.27;1784886;80;20132;-82
2021/10/06 04:50:13;;;;;;;;;;;;;;;13.20;84.75;98070.00;1784579;79;20191;-83
2021/10/06 04:52:39;;;;;;;;;;;;;;;13.14;88.37;98061.06;1755043;80;21730;-82
2021/10/06 04:55:06;;;;;;;;;;;;;;;13.14;84.09;98055.62;1784630;79;20238;-82
2021/10/06 04:57:32;;;;;;;;;;;;;;;13.09;82.64;98067.95;1784914;80;20184;-82
2021/10/06 04:59:58;;;;;;;;;;;;;;;13.07;82.59;98061.98;1784876;79;20175;-82
2021/10/06 05:02:23;;;;;;;;;;;;;;;13.13;84.22;98066.80;1785252;80;20156;-82
2021/10/06 05:04:49;;;;;;;;;;;;;;;13.13;90.03;98062.72;1784780;79;21109;-82
2021/10/06 05:07:15;;;;;;;;;;;;;;;13.15;84.59;98073.55;1784742;80;20183;-82
2021/10/06 05:09:40;;;;;;;;;;;;;;;13.12;86.30;98078.79;1784717;79;20233;-82
2021/10/06 05:12:06;;;;;;;;;;;;;;;13.08;87.13;98069.06;1784763;80;20254;-82
2021/10/06 05:14:32;;;;;;;;;;;;;;;13.07;86.77;98058.45;1784911;79;20187;-82
2021/10/06 05:16:58;;;;;;;;;;;;;;;13.08;86.05;98067.70;1784880;80;21087;-82
2021/10/06 05:19:24;;;;;;;;;;;;;;;13.15;84.89;98070.03;1784567;79;20412;-82
2021/10/06 05:21:50;;;;;;;;;;;;;;;13.21;84.63;98082.49;1784788;80;20663;-82
2021/10/06 05:24:16;;;;;;;;;;;;;;;13.25;84.80;98082.17;1754652;80;20159;-82
2021/10/06 05:26:42;;;;;;;;;;;;;;;13.26;87.32;98077.80;1784798;80;20266;-82
2021/10/06 05:29:07;;;;;;;;;;;;;;;13.25;87.31;98083.53;1756365;80;21055;-82
2021/10/06 05:31:33;;;;;;;;;;;;;;;13.27;89.23;98096.28;1773502;80;20233;-82
2021/10/06 05:33:59;;;;;;;;;;;;;;;13.28;89.14;98097.91;1728505;82;20205;-82
2021/10/06 05:36:25;;;;;;;;;;;;;;;13.26;85.75;98102.84;1728727;82;20161;-82
2021/10/06 05:38:51;;;;;;;;;;;;;;;13.22;87.81;98110.77;1728688;83;20201;-82
2021/10/06 05:41:17;;;;;;;;;;;;;;;13.20;85.58;98115.70;1728753;83;21089;-82
2021/10/06 05:43:42;;;;;;;;;;;;;;;13.22;84.92;98110.77;1761920;81;20760;-82
2021/10/06 05:46:08;;;;;;;;;;;;;;;13.28;84.96;98121.58;1728544;82;20161;-82
2021/10/06 05:48:34;;;;;;;;;;;;;;;13.29;83.76;98117.76;1728839;83;20161;-82
2021/10/06 05:51:00;;;;;;;;;;;;;;;13.26;86.21;98111.00;1728911;82;20217;-82
2021/10/06 05:53:26;;;;;;;;;;;;;;;13.26;84.62;98113.72;1728908;82;21043;-82
2021/10/06 05:55:52;;;;;;;;;;;;;;;13.33;83.92;98107.36;1728623;82;20509;-82
2021/10/06 05:58:19;;;;;;;;;;;;;;;13.40;84.87;98106.41;1728856;82;20650;-82
2021/10/06 06:00:44;;;;;;;;;;;;;;;13.47;86.68;98116.38;1728426;82;20163;-82
2021/10/06 06:03:10;;;;;;;;;;;;;;;13.49;84.14;98124.24;1728920;83;20229;-83
2021/10/06 06:05:38;;;;;;;;;;;;;;;13.55;84.06;98121.70;1728690;82;21065;-82
2021/10/06 06:08:04;;;;;;;;;;;;;;;13.59;84.85;98122.75;1712135;83;20133;-83
2021/10/06 06:10:30;;;;;;;;;;;;;;;13.57;88.19;98122.21;1728545;83;20189;-83
2021/10/06 06:12:56;;;;;;;;;;;;;;;13.63;84.90;98139.28;1728757;82;20694;-82
2021/10/06 06:15:22;;;;;;;;;;;;;;;13.65;85.29;98136.52;1728507;82;20194;-83
2021/10/06 06:17:47;;;;;;;;;;;;;;;13.71;84.51;98138.06;1728562;83;21128;-82
2021/10/06 06:20:14;;;;;;;;;;;;;;;13.72;84.01;98139.67;1762226;81;21179;-83
2021/10/06 06:22:40;;;;;;;;;;;;;;;13.75;83.43;98141.79;1728857;82;20143;-82
2021/10/06 06:25:08;;;;;;;;;;;;;;;13.72;85.20;98149.76;1761732;81;20205;-83
2021/10/06 06:27:33;;;;;;;;;;;;;;;13.70;83.52;98162.87;1762051;81;20407;-82
2021/10/06 06:29:59;;;;;;;;;;;;;;;13.60;85.07;98166.56;1728569;82;21884;-82
2021/10/06 06:32:25;;;;;;;;;;;;;;;13.55;84.21;98166.63;1750918;80;20470;-83
2021/10/06 06:34:51;;;;;;;;;;;;;;;13.55;84.32;98167.98;1778761;80;20168;-83
2021/10/06 06:37:17;;;;;;;;;;;;;;;13.58;84.51;98184.27;1751644;82;20181;-82
2021/10/06 06:39:43;;;;;;;;;;;;;;;13.57;84.61;98179.94;1719124;82;20675;-82
2021/10/06 06:42:08;;;;;;;;;;;;;;;13.58;84.32;98182.36;1737371;82;21759;-82
2021/10/06 06:44:34;;;;;;;;;;;;;;;13.61;84.07;98176.90;1746823;80;20966;-82
2021/10/06 06:47:00;;;;;;;;;;;;;;;13.64;84.22;98182.55;1768902;81;20274;-82
2021/10/06 06:49:26;;;;;;;;;;;;;;;13.68;85.05;98182.23;1769168;80;20160;-82
2021/10/06 06:51:51;;;;;;;;;;;;;;;13.70;86.68;98178.66;1768986;81;20163;-82
2021/10/06 06:54:17;;;;;;;;;;;;;;;13.68;86.04;98189.59;1778858;79;21133;-82
2021/10/06 06:56:43;;;;;;;;;;;;;;;13.67;87.90;98188.78;1751623;82;20189;-82
2021/10/06 06:59:09;;;;;;;;;;;;;;;13.67;89.34;98192.03;1746458;82;20181;-83
2021/10/06 07:01:35;;;;;;;;;;;;;;;13.66;92.24;98195.31;1723005;82;20154;-82
2021/10/06 07:04:01;;;;;;;;;;;;;;;13.66;92.51;98201.31;1729983;82;20183;-82
2021/10/06 07:06:32;;;;;;;;;;;;;;;13.73;90.22;98205.84;1751406;82;21123;-82
2021/10/06 07:08:55;;;;;;;;;;;;;;;13.72;87.96;98202.86;1745761;82;20132;-82
2021/10/06 07:11:21;;;;;;;;;;;;;;;13.65;91.69;98199.69;1748044;82;20748;-82
2021/10/06 07:13:47;;;;;;;;;;;;;;;13.64;89.02;98202.97;1778860;80;20215;-83
2021/10/06 07:16:13;;;;;;;;;;;;;;;13.60;88.00;98212.84;1768455;79;20243;-82
2021/10/06 07:18:38;;;;;;;;;;;;;;;13.53;87.99;98209.13;1768817;81;21082;-82
2021/10/06 07:21:04;;;;;;;;;;;;;;;13.55;87.44;98215.63;1768580;79;20242;-82
2021/10/06 07:23:30;;;;;;;;;;;;;;;13.61;89.45;98215.83;1768976;81;20183;-82
2021/10/06 07:25:56;;;;;;;;;;;;;;;13.64;89.32;98210.33;1739170;81;20163;-82
2021/10/06 07:28:21;;;;;;;;;;;;;;;13.67;87.50;98221.46;1779023;80;20210;-82
2021/10/06 07:30:47;;;;;;;;;;;;;;;13.68;87.07;98219.55;1751416;82;21948;-82
2021/10/06 07:33:13;;;;;;;;;;;;;;;13.70;86.77;98224.14;1730624;81;20194;-83
2021/10/06 07:35:40;;;;;;;;;;;;;;;13.70;86.91;98224.14;1695873;83;20183;-83
2021/10/06 07:38:05;;;;;;;;;;;;;;;13.73;86.72;98228.43;1706107;84;20429;-83
2021/10/06 07:40:31;;;;;;;;;;;;;;;13.77;86.57;98226.75;1758625;81;20183;-83
2021/10/06 07:42:57;;;;;;;;;;;;;;;13.81;88.22;98233.77;1758854;81;21027;-82
2021/10/06 07:45:23;;;;;;;;;;;;;;;13.84;86.32;98233.16;1758834;81;20167;-82
2021/10/06 07:47:49;;;;;;;;;;;;;;;13.80;86.32;98233.52;1759002;81;20222;-83
2021/10/06 07:50:14;;;;;;;;;;;;;;;13.81;86.97;98232.41;1758646;81;20163;-83
2021/10/06 07:52:40;;;;;;;;;;;;;;;13.77;89.14;98230.03;1758978;81;20183;-83
2021/10/06 07:55:07;;;;;;;;;;;;;;;13.76;90.96;98231.14;1758758;81;21810;-82
2021/10/06 07:57:32;;;;;;;;;;;;;;;13.71;92.13;98238.81;1758753;81;20160;-83
2021/10/06 07:59:58;;;;;;;;;;;;;;;13.71;90.85;98232.00;1758602;81;20266;-83
2021/10/06 08:02:25;;;;;;;;;;;;;;;13.68;90.35;98231.80;1758729;81;20387;-83
2021/10/06 08:04:52;;;;;;;;;;;;;;;13.69;89.34;98235.58;1742042;81;20173;-83
2021/10/06 08:07:17;;;;;;;;;;;;;;;13.70;90.32;98239.92;1758957;81;21011;-82
2021/10/06 08:09:43;;;;;;;;;;;;;;;13.73;88.57;98237.16;1758576;81;20174;-82
2021/10/06 08:12:09;;;;;;;;;;;;;;;13.69;87.91;98236.14;1758739;81;20676;-82
2021/10/06 08:14:35;;;;;;;;;;;;;;;13.70;87.68;98240.48;1741417;81;20281;-82
2021/10/06 08:17:01;;;;;;;;;;;;;;;13.70;87.20;98240.48;1758805;81;20190;-82
2021/10/06 08:19:26;;;;;;;;;;;;;;;13.69;87.62;98234.22;1758521;81;20494;-82
2021/10/06 08:21:52;;;;;;;;;;;;;;;13.72;87.30;98235.54;1758777;81;20747;-82
2021/10/06 08:24:18;;;;;;;;;;;;;;;13.64;87.84;98231.56;1758743;81;20268;-83
2021/10/06 08:26:44;;;;;;;;;;;;;;;13.61;87.43;98238.97;1758664;81;20139;-81
2021/10/06 08:29:09;;;;;;;;;;;;;;;13.61;87.68;98232.16;1758959;81;20159;-82
2021/10/06 08:31:35;;;;;;;;;;;;;;;13.64;87.95;98228.03;1758546;81;21109;-82
2021/10/06 08:34:01;;;;;;;;;;;;;;;13.67;87.50;98228.27;1751083;80;20213;-82
2021/10/06 08:36:27;;;;;;;;;;;;;;;13.76;88.61;98227.05;1750798;81;20236;-82
2021/10/06 08:38:52;;;;;;;;;;;;;;;13.80;91.58;98232.95;1751443;82;20192;-82
2021/10/06 08:41:18;;;;;;;;;;;;;;;13.87;89.69;98235.88;1750872;82;20260;-83
2021/10/06 08:43:44;;;;;;;;;;;;;;;13.90;89.15;98237.99;1751160;81;21123;-82
2021/10/06 08:46:10;;;;;;;;;;;;;;;14.01;88.60;98229.35;1723257;82;20209;-81
2021/10/06 08:48:36;;;;;;;;;;;;;;;14.14;87.74;98236.53;1751127;81;20204;-84
2021/10/06 08:51:01;;;;;;;;;;;;;;;14.17;87.50;98234.01;1750815;82;20384;-82
2021/10/06 08:53:27;;;;;;;;;;;;;;;14.18;88.06;98228.81;1751024;81;20182;-84
2021/10/06 08:55:53;;;;;;;;;;;;;;;14.28;87.71;98242.85;1750872;81;21066;-84
2021/10/06 08:58:19;;;;;;;;;;;;;;;14.26;87.65;98237.67;1751206;81;20260;-82
2021/10/06 09:00:55;;;;;;;;;;;;;;;14.29;87.57;98236.29;1750781;81;20216;-83
2021/10/06 09:03:27;;;;;;;;;;;;;;;14.26;87.22;98233.58;1751067;81;20167;-82
2021/10/06 09:06:07;;;;;;;;;;;;;;;14.23;89.76;98230.66;1750859;81;20183;-82
2021/10/06 09:08:34;;;;;;;;;;;;;;;14.24;89.19;98226.27;1751150;82;21137;-82
2021/10/06 09:11:00;;;;;;;;;;;;;;;14.29;87.82;98235.73;1750671;81;20163;-83
2021/10/06 09:13:31;;;;;;;;;;;;;;;14.32;87.91;98235.13;1751100;81;20190;-83
2021/10/06 09:16:00;;;;;;;;;;;;;;;14.44;87.67;98236.03;1750624;82;20456;-83
2021/10/06 09:18:27;;;;;;;;;;;;;;;14.53;88.23;98237.55;1723626;82;20458;-82
2021/10/06 09:20:52;;;;;;;;;;;;;;;14.53;88.19;98241.64;1751258;82;21262;-83
2021/10/06 09:23:20;;;;;;;;;;;;;;;14.46;86.91;98244.75;1751107;82;20212;-82
2021/10/06 09:25:49;;;;;;;;;;;;;;;14.40;86.91;98246.70;1750905;82;20142;-82
2021/10/06 09:28:22;;;;;;;;;;;;;;;14.33;88.14;98242.19;1750978;81;20159;-84
2021/10/06 09:30:54;;;;;;;;;;;;;;;14.31;88.20;98252.59;1750211;82;20159;-82
2021/10/06 09:33:20;;;;;;;;;;;;;;;14.29;88.03;98248.55;1737132;80;21143;-83
2021/10/06 09:35:49;;;;;;;;;;;;;;;14.28;87.94;98251.83;1778761;80;20183;-83
2021/10/06 09:38:15;;;;;;;;;;;;;;;14.30;87.06;98252.34;1777624;80;20152;-83
2021/10/06 09:40:41;;;;;;;;;;;;;;;14.31;86.51;98256.68;1778768;80;20152;-82
2021/10/06 09:43:07;;;;;;;;;;;;;;;14.27;86.37;98254.31;1778713;80;20644;-83
2021/10/06 09:45:34;;;;;;;;;;;;;;;14.23;86.46;98251.91;1778739;80;21017;-84
2021/10/06 09:48:12;;;;;;;;;;;;;;;14.21;86.35;98256.05;1748227;80;20153;-82
2021/10/06 09:50:43;;;;;;;;;;;;;;;14.11;86.44;98256.47;1779250;80;20392;-82
2021/10/06 09:53:12;;;;;;;;;;;;;;;14.17;86.29;98258.53;1778927;80;20204;-83
2021/10/06 09:55:38;;;;;;;;;;;;;;;14.20;86.32;98257.96;1778771;80;20156;-84
2021/10/06 09:58:04;;;;;;;;;;;;;;;14.26;86.18;98265.48;1779108;80;21135;-82
2021/10/06 10:00:30;;;;;;;;;;;;;;;14.25;86.36;98261.14;1779274;79;20183;-82
2021/10/06 10:02:56;;;;;;;;;;;;;;;14.21;86.27;98262.86;1778963;80;20262;-83
2021/10/06 10:05:22;;;;;;;;;;;;;;;14.21;86.34;98263.66;1778747;80;20203;-82
2021/10/06 10:07:50;;;;;;;;;;;;;;;14.18;86.73;98268.33;1778987;80;20332;-83
2021/10/06 10:10:15;;;;;;;;;;;;;;;14.26;86.54;98271.74;1778927;79;21078;-83
2021/10/06 10:12:41;;;;;;;;;;;;;;;14.24;88.24;98256.24;1748397;80;20297;-83
2021/10/06 10:15:08;;;;;;;;;;;;;;;14.31;86.57;98269.50;1748414;79;20175;-82
2021/10/06 10:17:34;;;;;;;;;;;;;;;14.39;86.43;98265.54;1748383;80;20145;-83
2021/10/06 10:20:14;;;;;;;;;;;;;;;14.45;86.16;98270.39;1778930;79;20195;-82
2021/10/06 10:22:42;;;;;;;;;;;;;;;14.46;86.51;98267.11;1778060;80;21087;-82
2021/10/06 10:25:25;;;;;;;;;;;;;;;14.49;85.44;98274.69;1778716;80;20129;-83
2021/10/06 10:27:59;;;;;;;;;;;;;;;14.43;85.29;98271.75;1779028;80;20125;-83
2021/10/06 10:30:25;;;;;;;;;;;;;;;14.37;85.39;98273.77;1778922;80;20517;-84
2021/10/06 10:32:51;;;;;;;;;;;;;;;14.28;85.64;98276.37;1780120;80;20183;-82
2021/10/06 10:35:20;;;;;;;;;;;;;;;14.27;85.74;98281.56;1784810;80;21090;-82
2021/10/06 10:37:54;;;;;;;;;;;;;;;14.24;86.56;98275.33;1756564;80;20165;-83
2021/10/06 10:40:33;;;;;;;;;;;;;;;14.23;88.35;98276.44;1783178;79;20191;-83
2021/10/06 10:43:06;;;;;;;;;;;;;;;14.32;87.16;98266.47;1784863;80;20137;-82
2021/10/06 10:45:48;;;;;;;;;;;;;;;14.40;87.69;98275.33;1783717;80;20219;-83
2021/10/06 10:48:17;;;;;;;;;;;;;;;14.41;87.17;98278.86;1784709;80;21046;-82
2021/10/06 10:50:47;;;;;;;;;;;;;;;14.40;86.56;98278.61;1784566;80;20140;-83
2021/10/06 10:53:14;;;;;;;;;;;;;;;14.33;86.43;98278.18;1784692;80;20184;-83
2021/10/06 10:55:44;;;;;;;;;;;;;;;14.27;87.85;98281.56;1784510;80;20365;-83
2021/10/06 10:58:29;;;;;;;;;;;;;;;14.30;87.26;98277.42;1784752;80;20153;-82
2021/10/06 11:00:57;;;;;;;;;;;;;;;14.26;86.41;98281.84;1784894;80;21219;-83
2021/10/06 11:03:23;;;;;;;;;;;;;;;14.16;86.60;98283.36;1783489;80;20140;-83
2021/10/06 11:05:49;;;;;;;;;;;;;;;14.09;86.45;98281.00;1784348;80;20238;-83
2021/10/06 11:08:31;;;;;;;;;;;;;;;14.13;86.56;98280.69;1784862;80;20199;-83
2021/10/06 11:11:13;;;;;;;;;;;;;;;14.25;86.50;98272.85;1784463;80;20179;-83
2021/10/06 11:13:41;;;;;;;;;;;;;;;14.39;86.14;98264.17;1784607;80;21062;-83
2021/10/06 11:16:07;;;;;;;;;;;;;;;14.43;86.55;98270.38;1784376;80;20128;-83
2021/10/06 11:18:49;;;;;;;;;;;;;;;14.44;86.46;98271.48;1784873;80;20184;-83
2021/10/06 11:21:31;;;;;;;;;;;;;;;14.56;86.30;98265.02;1784405;80;20125;-83
2021/10/06 11:23:59;;;;;;;;;;;;;;;14.56;86.41;98269.10;1784623;80;20877;-83
2021/10/06 11:26:28;;;;;;;;;;;;;;;14.63;86.02;98274.98;1756638;80;21052;-83
2021/10/06 11:28:55;;;;;;;;;;;;;;;14.64;86.01;98272.50;1782973;80;20152;-83
2021/10/06 11:31:23;;;;;;;;;;;;;;;14.62;86.10;98273.92;1784473;80;20425;-84
2021/10/06 11:33:49;;;;;;;;;;;;;;;14.61;85.95;98270.39;1785981;80;20410;-83
2021/10/06 11:36:26;;;;;;;;;;;;;;;14.61;85.79;98272.28;1787490;80;20672;-84
2021/10/06 11:39:08;;;;;;;;;;;;;;;14.59;85.76;98271.22;1787721;80;21748;-82
2021/10/06 11:41:35;;;;;;;;;;;;;;;14.54;85.62;98269.97;1759863;80;20116;-83
2021/10/06 11:44:00;;;;;;;;;;;;;;;14.46;85.82;98265.75;1788095;80;20132;-84
2021/10/06 11:46:32;;;;;;;;;;;;;;;14.40;85.30;98273.97;1787404;80;20602;-84
2021/10/06 11:48:56;;;;;;;;;;;;;;;14.40;85.08;98274.52;1787413;80;20418;-83
2021/10/06 11:51:37;;;;;;;;;;;;;;;14.35;85.21;98269.14;1760880;80;22014;-84
2021/10/06 11:54:03;;;;;;;;;;;;;;;14.34;85.20;98267.53;1787203;80;20152;-83
2021/10/06 11:56:30;;;;;;;;;;;;;;;14.31;85.18;98262.69;1787462;80;20175;-84
2021/10/06 11:59:13;;;;;;;;;;;;;;;14.27;85.02;98267.94;1787696;80;20478;-83
2021/10/06 12:01:39;;;;;;;;;;;;;;;14.25;84.94;98262.50;1760967;80;20145;-83
2021/10/06 12:04:15;;;;;;;;;;;;;;;14.23;84.85;98270.98;1761241;80;21076;-82
2021/10/06 12:06:45;;;;;;;;;;;;;;;14.22;84.93;98274.02;1787466;80;20125;-83
2021/10/06 12:09:12;;;;;;;;;;;;;;;14.22;84.89;98276.73;1787852;80;20130;-83
2021/10/06 12:11:39;;;;;;;;;;;;;;;14.24;84.93;98279.97;1761102;80;20164;-83
2021/10/06 12:14:23;;;;;;;;;;;;;;;14.24;84.91;98278.60;1787733;80;20144;-82
2021/10/06 12:17:04;;;;;;;;;;;;;;;14.19;88.30;98282.80;1787494;80;21929;-83
2021/10/06 12:19:30;;;;;;;;;;;;;;;14.09;90.01;98275.55;1787357;80;20396;-83
2021/10/06 12:21:56;;;;;;;;;;;;;;;13.99;90.96;98279.25;1787593;80;20217;-83
2021/10/06 12:24:25;;;;;;;;;;;;;;;14.04;89.26;98280.55;1788030;80;20406;-81
2021/10/06 12:26:55;;;;;;;;;;;;;;;14.11;88.22;98286.44;1787082;79;20170;-81
2021/10/06 12:29:23;;;;;;;;;;;;;;;14.14;87.29;98293.20;1787764;80;21833;-83
2021/10/06 12:31:49;;;;;;;;;;;;;;;14.17;88.05;98281.70;1787511;80;20133;-84
2021/10/06 12:34:20;;;;;;;;;;;;;;;14.28;87.14;98286.46;1782703;80;20396;-83
2021/10/06 12:36:48;;;;;;;;;;;;;;;14.33;86.90;98273.53;1778652;80;20184;-83
2021/10/06 12:39:21;;;;;;;;;;;;;;;14.40;86.62;98279.42;1778191;80;20408;-83
2021/10/06 12:41:54;;;;;;;;;;;;;;;14.46;86.62;98282.91;1778963;79;21034;-83
2021/10/06 12:44:28;;;;;;;;;;;;;;;14.49;86.24;98278.22;1778841;80;20144;-83
2021/10/06 12:46:56;;;;;;;;;;;;;;;14.50;86.09;98277.10;1778669;79;20428;-83